Time;durP1;ratioP1;P1;durP2;ratioP2;P2;SDS_P1;SDS_P2;PMS_P1;PMS_P2;Temp;Humidity;BMP_temperature;BMP_pressure;BME280_temperature;BME280_humidity;BME280_pressure;Samples;Min_cycle;Max_cycle;Signal;HPM_P1;HPM_P2
2021/08/25 00:00:27;;;;;;;1.65;0.90;;;;;;;18.32;64.05;100572.28;5090935;28;20027;-63
2021/08/25 00:02:52;;;;;;;0.70;0.70;;;;;;;18.31;64.27;100565.16;5090673;28;20050;-64
2021/08/25 00:05:18;;;;;;;6.18;1.00;;;;;;;18.28;63.47;100553.81;5108887;28;20057;-64
2021/08/25 00:07:43;;;;;;;2.17;0.60;;;;;;;18.19;63.75;100553.03;5109369;28;20024;-64
2021/08/25 00:10:09;;;;;;;1.48;1.02;;;;;;;18.21;63.69;100556.38;5106173;28;20024;-63
2021/08/25 00:12:35;;;;;;;2.03;1.20;;;;;;;18.18;63.80;100556.72;5108635;28;20030;-64
2021/08/25 00:15:00;;;;;;;1.02;0.93;;;;;;;18.20;63.67;100571.00;5090396;28;20054;-63
2021/08/25 00:17:26;;;;;;;1.35;0.80;;;;;;;18.16;63.75;100563.38;5108641;28;20119;-63
2021/08/25 00:19:52;;;;;;;2.15;1.00;;;;;;;18.17;63.69;100559.63;5108494;28;20023;-62
2021/08/25 00:22:17;;;;;;;1.67;0.88;;;;;;;18.14;63.83;100560.84;5108492;28;20130;-63
2021/08/25 00:24:43;;;;;;;2.35;0.88;;;;;;;18.12;63.88;100560.16;5108570;28;20482;-63
2021/08/25 00:27:09;;;;;;;1.05;0.90;;;;;;;18.08;64.10;100561.53;5108520;28;20428;-63
2021/08/25 00:29:35;;;;;;;2.28;0.80;;;;;;;18.06;63.90;100580.72;5090117;28;20027;-63
2021/08/25 00:32:01;;;;;;;0.95;0.77;;;;;;;18.07;64.01;100576.16;5108379;28;20027;-62
2021/08/25 00:34:26;;;;;;;2.38;1.00;;;;;;;18.05;64.05;100575.47;5090066;28;20027;-63
2021/08/25 00:36:52;;;;;;;1.00;0.80;;;;;;;18.05;63.93;100581.75;5108519;28;20496;-62
2021/08/25 00:39:17;;;;;;;2.95;0.90;;;;;;;18.03;64.04;100572.91;5109443;28;20016;-62
2021/08/25 00:41:43;;;;;;;0.85;0.80;;;;;;;18.03;64.49;100582.94;5112273;28;20064;-63
2021/08/25 00:44:10;;;;;;;1.63;1.05;;;;;;;18.01;64.12;100583.13;5112593;28;20073;-63
2021/08/25 00:46:36;;;;;;;1.35;1.00;;;;;;;17.96;64.50;100571.13;5111912;28;20051;-62
2021/08/25 00:49:02;;;;;;;1.85;1.27;;;;;;;18.02;64.59;100584.81;5112036;28;20395;-63
2021/08/25 00:51:27;;;;;;;1.00;0.90;;;;;;;18.01;64.58;100593.97;5112123;28;20032;-63
2021/08/25 00:53:53;;;;;;;5.95;1.25;;;;;;;17.99;64.55;100581.59;5112015;28;20038;-63
2021/08/25 00:56:22;;;;;;;1.35;0.90;;;;;;;17.98;64.70;100575.34;5111986;28;20444;-62
2021/08/25 00:58:49;;;;;;;1.15;0.93;;;;;;;18.00;64.46;100581.41;5093726;28;20026;-64
2021/08/25 01:01:25;;;;;;;1.35;0.90;;;;;;;18.02;65.02;100586.66;5112222;28;20080;-62
2021/08/25 01:03:56;;;;;;;1.80;1.00;;;;;;;18.02;64.62;100578.53;5111708;28;20028;-62
2021/08/25 01:06:24;;;;;;;2.85;1.02;;;;;;;18.02;64.53;100583.94;5111714;28;20088;-63
2021/08/25 01:08:50;;;;;;;2.67;1.02;;;;;;;18.02;64.59;100581.25;5111857;28;20031;-63
2021/08/25 01:11:15;;;;;;;1.15;0.88;;;;;;;17.95;64.51;100572.13;5111984;28;20031;-63
2021/08/25 01:13:41;;;;;;;2.42;0.80;;;;;;;18.01;64.73;100580.41;5111842;28;20592;-63
2021/08/25 01:16:07;;;;;;;0.82;0.70;;;;;;;18.00;64.71;100581.41;5106341;28;20023;-63
2021/08/25 01:18:33;;;;;;;1.45;1.00;;;;;;;18.00;64.78;100570.56;5111218;28;20039;-62
2021/08/25 01:21:04;;;;;;;1.20;0.75;;;;;;;18.03;64.44;100569.38;5091786;28;20031;-62
2021/08/25 01:23:39;;;;;;;1.20;1.02;;;;;;;18.01;64.81;100569.56;5109412;28;20032;-63
2021/08/25 01:26:05;;;;;;;2.72;0.90;;;;;;;18.00;64.42;100567.00;5109755;28;20047;-63
2021/08/25 01:28:35;;;;;;;3.03;0.95;;;;;;;17.97;64.38;100561.94;5111217;28;20031;-62
2021/08/25 01:31:02;;;;;;;1.20;0.90;;;;;;;17.98;64.25;100558.19;5110713;28;20031;-62
2021/08/25 01:33:29;;;;;;;1.50;0.93;;;;;;;17.96;63.93;100552.13;5110574;28;20049;-64
2021/08/25 01:35:54;;;;;;;1.55;1.20;;;;;;;17.92;64.39;100534.47;5110722;28;20055;-64
2021/08/25 01:38:36;;;;;;;1.95;1.15;;;;;;;17.90;64.51;100541.97;5110692;28;20066;-64
2021/08/25 01:41:03;;;;;;;2.00;1.05;;;;;;;17.85;65.00;100538.91;5108463;28;20065;-64
2021/08/25 01:43:28;;;;;;;2.55;1.00;;;;;;;17.82;64.98;100544.69;5110660;28;20053;-64
2021/08/25 01:45:53;;;;;;;2.50;1.05;;;;;;;17.81;64.93;100553.84;5110342;28;20047;-64
2021/08/25 01:48:19;;;;;;;2.30;1.25;;;;;;;17.77;64.90;100561.50;5110527;28;20019;-64
2021/08/25 01:50:44;;;;;;;3.65;1.30;;;;;;;17.79;64.83;100569.44;5109348;28;20043;-64
2021/08/25 01:53:14;;;;;;;2.33;1.00;;;;;;;17.76;65.18;100565.22;5110400;28;20356;-64
2021/08/25 01:55:40;;;;;;;1.42;1.05;;;;;;;17.75;65.23;100563.56;5108726;28;20101;-64
2021/08/25 01:58:06;;;;;;;2.28;1.20;;;;;;;17.73;64.99;100553.88;5110091;28;20443;-64
2021/08/25 02:00:31;;;;;;;1.70;1.20;;;;;;;17.70;65.45;100540.66;5110105;28;20020;-64
2021/08/25 02:02:57;;;;;;;2.08;1.20;;;;;;;17.73;65.61;100554.72;5109977;28;20031;-64
2021/08/25 02:05:22;;;;;;;1.95;0.90;;;;;;;17.75;65.34;100538.28;5091418;28;20063;-64
2021/08/25 02:07:48;;;;;;;1.35;1.10;;;;;;;17.70;65.78;100529.78;5110661;28;20051;-64
2021/08/25 02:10:14;;;;;;;1.83;1.13;;;;;;;17.74;65.62;100537.41;5109987;28;20047;-63
2021/08/25 02:12:39;;;;;;;1.92;1.58;;;;;;;17.76;65.53;100529.97;5109935;28;20034;-64
2021/08/25 02:15:05;;;;;;;1.60;1.10;;;;;;;17.74;65.34;100528.44;5109731;28;20030;-64
2021/08/25 02:17:31;;;;;;;2.25;1.35;;;;;;;17.79;65.35;100535.03;5109547;28;20028;-64
2021/08/25 02:19:56;;;;;;;1.58;1.10;;;;;;;17.79;65.25;100531.47;5110258;28;21613;-64
2021/08/25 02:22:21;;;;;;;1.98;1.52;;;;;;;17.79;65.40;100531.47;5110563;28;20129;-64
2021/08/25 02:24:47;;;;;;;1.88;1.35;;;;;;;17.78;65.53;100530.66;5110623;28;20024;-63
2021/08/25 02:27:12;;;;;;;2.50;1.48;;;;;;;17.79;65.41;100524.19;5091839;28;20475;-63
2021/08/25 02:29:38;;;;;;;6.30;1.70;;;;;;;17.80;65.45;100519.63;5110032;28;20039;-63
2021/08/25 02:32:04;;;;;;;4.32;2.10;;;;;;;17.80;64.74;100527.75;5109815;28;20039;-63
2021/08/25 02:34:29;;;;;;;4.38;2.10;;;;;;;17.80;64.88;100527.75;5110058;28;20106;-64
2021/08/25 02:36:54;;;;;;;2.20;1.90;;;;;;;17.76;64.40;100534.53;5110233;28;20039;-64
2021/08/25 02:39:20;;;;;;;2.63;1.77;;;;;;;17.71;64.28;100529.63;5110215;28;20024;-64
2021/08/25 02:41:45;;;;;;;2.45;2.25;;;;;;;17.77;64.18;100534.34;5109887;28;20028;-63
2021/08/25 02:44:11;;;;;;;2.88;2.03;;;;;;;17.76;64.31;100529.09;5109774;28;20038;-63
2021/08/25 02:46:36;;;;;;;4.10;2.15;;;;;;;17.75;64.09;100536.41;5109484;28;20047;-63
2021/08/25 02:49:03;;;;;;;3.03;1.95;;;;;;;17.74;63.69;100540.13;5091500;28;20047;-63
2021/08/25 02:51:28;;;;;;;5.63;2.28;;;;;;;17.73;63.77;100545.72;5109659;28;20360;-62
2021/08/25 02:53:54;;;;;;;7.68;2.67;;;;;;;17.69;63.33;100534.41;5109568;28;20110;-63
2021/08/25 02:56:19;;;;;;;3.75;2.50;;;;;;;17.68;63.54;100530.00;5110069;28;20106;-64
2021/08/25 02:58:45;;;;;;;3.22;2.22;;;;;;;17.72;63.69;100534.06;5091171;28;20016;-65
2021/08/25 03:01:11;;;;;;;3.17;2.30;;;;;;;17.69;63.27;100530.81;5109677;28;20020;-64
2021/08/25 03:03:36;;;;;;;4.57;2.50;;;;;;;17.69;63.36;100528.13;5108488;28;20039;-64
2021/08/25 03:06:02;;;;;;;3.60;2.15;;;;;;;17.68;63.44;100530.00;5109309;28;20024;-64
2021/08/25 03:08:27;;;;;;;3.47;2.35;;;;;;;17.65;63.30;100533.06;5109375;28;20398;-64
2021/08/25 03:10:53;;;;;;;4.70;2.47;;;;;;;17.61;63.41;100522.72;5109525;28;20042;-65
2021/08/25 03:13:18;;;;;;;4.25;2.60;;;;;;;17.65;63.20;100537.63;5109518;28;20024;-64
2021/08/25 03:15:43;;;;;;;3.75;2.67;;;;;;;17.66;63.12;100545.59;5109241;28;20057;-64
2021/08/25 03:18:09;;;;;;;2.83;2.15;;;;;;;17.64;63.22;100541.38;5109299;28;20115;-64
2021/08/25 03:20:34;;;;;;;3.90;2.63;;;;;;;17.66;63.25;100547.44;5109303;28;20016;-64
2021/08/25 03:23:00;;;;;;;4.65;2.60;;;;;;;17.62;63.36;100540.69;5109304;28;20062;-64
2021/08/25 03:25:25;;;;;;;4.82;2.40;;;;;;;17.63;63.29;100554.09;5108696;28;20035;-64
2021/08/25 03:27:50;;;;;;;6.53;3.22;;;;;;;17.61;63.27;100542.53;5109398;28;20031;-64
2021/08/25 03:30:16;;;;;;;3.75;2.55;;;;;;;17.64;63.38;100554.94;5108387;28;20461;-64
2021/08/25 03:32:41;;;;;;;3.72;2.55;;;;;;;17.63;63.05;100551.38;5108704;28;20571;-64
2021/08/25 03:35:07;;;;;;;4.07;2.42;;;;;;;17.66;63.65;100559.16;5108851;28;20027;-64
2021/08/25 03:37:33;;;;;;;6.10;2.85;;;;;;;17.61;63.66;100547.16;5108820;28;20032;-64
2021/08/25 03:39:59;;;;;;;3.70;2.28;;;;;;;17.65;63.62;100562.06;5108836;28;20020;-64
2021/08/25 03:42:24;;;;;;;5.13;2.40;;;;;;;17.56;63.72;100549.53;5108729;28;20027;-64
2021/08/25 03:44:50;;;;;;;5.10;2.17;;;;;;;17.65;63.58;100562.91;5108489;28;20471;-64
2021/08/25 03:47:15;;;;;;;4.65;2.40;;;;;;;17.64;63.76;100572.03;5108221;28;20048;-64
2021/08/25 03:49:42;;;;;;;3.17;2.17;;;;;;;17.62;63.93;100574.09;5108895;28;20463;-64
2021/08/25 03:52:08;;;;;;;5.90;2.47;;;;;;;17.56;64.46;100569.38;5090650;28;20027;-65
2021/08/25 03:54:34;;;;;;;3.88;2.35;;;;;;;17.55;64.31;100564.13;5108882;28;20027;-65
2021/08/25 03:56:59;;;;;;;4.05;2.30;;;;;;;17.60;64.37;100573.41;5090647;28;20031;-63
2021/08/25 03:59:25;;;;;;;3.50;2.80;;;;;;;17.58;64.30;100566.47;5108697;28;20019;-65
2021/08/25 04:01:50;;;;;;;4.97;2.30;;;;;;;17.62;64.46;100576.81;5108557;28;20099;-65
2021/08/25 04:04:17;;;;;;;5.43;2.13;;;;;;;17.59;64.78;100560.88;5107504;28;20040;-64
2021/08/25 04:06:43;;;;;;;4.63;2.33;;;;;;;17.56;65.07;100555.81;5107929;28;20071;-65
2021/08/25 04:09:09;;;;;;;5.15;2.35;;;;;;;17.56;65.14;100561.22;5108341;28;20023;-65
2021/08/25 04:11:34;;;;;;;4.03;2.10;;;;;;;17.49;65.69;100553.94;5108081;28;20520;-65
2021/08/25 04:14:01;;;;;;;4.18;2.30;;;;;;;17.55;65.31;100561.41;5090842;28;20016;-63
2021/08/25 04:16:27;;;;;;;6.18;2.67;;;;;;;17.52;65.22;100567.16;5112793;28;20034;-63
2021/08/25 04:18:52;;;;;;;3.08;2.42;;;;;;;17.49;65.51;100562.09;5112078;28;20420;-63
2021/08/25 04:21:18;;;;;;;4.28;2.58;;;;;;;17.53;65.42;100571.56;5111859;28;20076;-63
2021/08/25 04:23:43;;;;;;;4.28;2.50;;;;;;;17.49;65.80;100565.66;5110783;28;20063;-63
2021/08/25 04:26:10;;;;;;;3.10;2.30;;;;;;;17.54;65.68;100567.84;5112005;28;20064;-64
2021/08/25 04:28:35;;;;;;;2.80;2.40;;;;;;;17.57;65.62;100567.47;5112581;28;20422;-63
2021/08/25 04:31:01;;;;;;;3.88;2.20;;;;;;;17.52;65.12;100557.19;5112844;28;20052;-63
2021/08/25 04:33:26;;;;;;;3.80;2.20;;;;;;;17.62;65.49;100562.38;5112685;28;20165;-63
2021/08/25 04:35:52;;;;;;;6.95;2.45;;;;;;;17.61;65.63;100553.41;5112453;28;20509;-63
2021/08/25 04:38:17;;;;;;;6.10;2.50;;;;;;;17.72;66.17;100563.03;5094154;28;20509;-63
2021/08/25 04:40:44;;;;;;;3.35;2.28;;;;;;;17.75;65.71;100549.13;5112660;28;20031;-64
2021/08/25 04:43:09;;;;;;;4.18;2.00;;;;;;;17.80;65.61;100538.59;5112108;28;20019;-63
2021/08/25 04:45:38;;;;;;;6.18;2.38;;;;;;;17.78;65.57;100536.06;5112102;28;20058;-65
2021/08/25 04:48:04;;;;;;;6.35;2.75;;;;;;;17.86;65.56;100537.88;5112555;28;20035;-65
2021/08/25 04:50:30;;;;;;;5.10;2.83;;;;;;;17.92;64.67;100542.59;5112342;28;20165;-65
2021/08/25 04:52:55;;;;;;;4.30;2.65;;;;;;;17.98;64.26;100539.19;5112613;28;20453;-64
2021/08/25 04:55:21;;;;;;;3.60;2.17;;;;;;;18.02;64.81;100543.25;5093871;28;20026;-64
2021/08/25 04:57:46;;;;;;;4.43;2.33;;;;;;;17.99;65.19;100541.72;5111880;28;20069;-64
2021/08/25 05:00:12;;;;;;;6.03;2.78;;;;;;;18.09;64.81;100547.78;5112182;28;20704;-64
2021/08/25 05:02:38;;;;;;;4.63;2.20;;;;;;;18.10;64.21;100541.31;5111866;28;20023;-64
2021/08/25 05:05:04;;;;;;;4.13;2.13;;;;;;;18.16;63.76;100547.94;5111903;28;20093;-64
2021/08/25 05:07:29;;;;;;;7.13;2.22;;;;;;;18.04;63.60;100520.34;5111814;28;20031;-64
2021/08/25 05:09:55;;;;;;;5.03;2.47;;;;;;;18.22;64.16;100547.22;5111928;28;20032;-64
2021/08/25 05:12:20;;;;;;;6.03;2.58;;;;;;;18.27;63.69;100546.66;5111781;28;20474;-64
2021/08/25 05:14:46;;;;;;;4.32;2.30;;;;;;;18.30;63.28;100549.03;5111902;28;20475;-64
2021/08/25 05:17:11;;;;;;;3.70;2.40;;;;;;;18.33;63.06;100545.97;5111802;28;20076;-63
2021/08/25 05:19:37;;;;;;;3.45;2.55;;;;;;;18.34;62.55;100543.06;5111703;28;20024;-63
2021/08/25 05:22:02;;;;;;;3.85;2.30;;;;;;;18.39;62.40;100543.44;5111675;28;20059;-64
2021/08/25 05:24:28;;;;;;;5.53;2.28;;;;;;;18.47;61.74;100548.78;5111971;28;20046;-63
2021/08/25 05:26:54;;;;;;;4.93;2.55;;;;;;;18.49;61.50;100535.88;5110120;28;20501;-63
2021/08/25 05:29:20;;;;;;;5.10;2.38;;;;;;;18.60;61.18;100538.19;5111529;28;20039;-64
2021/08/25 05:31:46;;;;;;;3.28;2.15;;;;;;;18.65;61.20;100540.34;5111421;28;20421;-64
2021/08/25 05:34:12;;;;;;;5.57;2.40;;;;;;;18.68;60.77;100546.28;5111285;28;20054;-64
2021/08/25 05:36:39;;;;;;;5.80;2.65;;;;;;;18.75;61.17;100546.38;5111228;28;20019;-64
2021/08/25 05:39:04;;;;;;;6.95;2.90;;;;;;;18.79;60.63;100545.84;5109294;28;20067;-64
2021/08/25 05:41:30;;;;;;;3.83;2.60;;;;;;;18.85;60.34;100536.13;5110820;28;20054;-63
2021/08/25 05:43:55;;;;;;;8.10;3.20;;;;;;;18.91;60.12;100538.97;5107902;28;20023;-63
2021/08/25 05:46:21;;;;;;;5.65;2.90;;;;;;;18.97;59.87;100543.69;5107865;28;20070;-64
2021/08/25 05:48:46;;;;;;;7.68;2.90;;;;;;;18.96;59.90;100522.09;5106605;28;20024;-64
2021/08/25 05:51:12;;;;;;;4.88;2.30;;;;;;;19.19;60.03;100550.94;5107894;28;20033;-63
2021/08/25 05:53:37;;;;;;;4.00;2.83;;;;;;;19.29;58.60;100539.84;5107734;28;20385;-64
2021/08/25 05:56:03;;;;;;;5.18;2.60;;;;;;;19.41;59.00;100544.63;5108101;28;20032;-64
2021/08/25 05:58:28;;;;;;;4.88;2.40;;;;;;;19.52;58.53;100540.59;5108239;28;20439;-63
2021/08/25 06:00:54;;;;;;;4.97;2.17;;;;;;;19.62;58.25;100546.63;5107036;28;20356;-64
2021/08/25 06:03:19;;;;;;;4.85;2.63;;;;;;;19.68;58.19;100541.28;5107289;28;20560;-64
2021/08/25 06:05:45;;;;;;;4.28;2.50;;;;;;;19.78;58.07;100530.97;5105859;28;20030;-64
2021/08/25 06:08:10;;;;;;;4.07;2.55;;;;;;;19.84;57.58;100530.22;5109381;28;20024;-64
2021/08/25 06:10:36;;;;;;;5.88;3.50;;;;;;;19.87;57.63;100537.16;5109809;28;20035;-64
2021/08/25 06:13:01;;;;;;;4.25;2.67;;;;;;;19.94;57.35;100546.25;5108994;28;20058;-64
2021/08/25 06:15:26;;;;;;;4.53;2.50;;;;;;;20.02;56.86;100552.41;5110455;28;20035;-64
2021/08/25 06:17:52;;;;;;;4.80;2.30;;;;;;;20.05;56.82;100543.88;5109879;28;20028;-64
2021/08/25 06:20:17;;;;;;;5.13;2.60;;;;;;;20.20;57.14;100549.34;5110319;28;20016;-64
2021/08/25 06:22:43;;;;;;;4.05;2.28;;;;;;;20.20;56.34;100519.38;5109990;28;20034;-64
2021/08/25 06:25:09;;;;;;;2.83;1.90;;;;;;;20.43;56.34;100530.94;5109581;28;20027;-64
2021/08/25 06:27:35;;;;;;;3.72;2.63;;;;;;;20.64;55.44;100538.31;5109672;28;20505;-64
2021/08/25 06:30:00;;;;;;;4.35;2.38;;;;;;;20.79;55.19;100529.03;5109848;28;20039;-64
2021/08/25 06:32:26;;;;;;;6.03;2.03;;;;;;;20.96;53.74;100519.56;5109456;28;20032;-64
2021/08/25 06:34:51;;;;;;;3.35;2.08;;;;;;;21.09;53.10;100536.03;5101968;28;20524;-64
2021/08/25 06:37:17;;;;;;;6.57;2.22;;;;;;;21.17;52.54;100524.13;5109823;28;20475;-64
2021/08/25 06:39:42;;;;;;;4.32;2.03;;;;;;;21.32;53.35;100527.63;5109510;28;20034;-64
2021/08/25 06:42:08;;;;;;;5.50;2.38;;;;;;;21.47;51.90;100512.00;5109311;28;20095;-64
2021/08/25 06:44:33;;;;;;;4.82;2.60;;;;;;;21.62;51.44;100520.91;5091407;28;20027;-64
2021/08/25 06:46:59;;;;;;;4.63;2.30;;;;;;;21.68;51.24;100525.56;5109381;28;20083;-64
2021/08/25 06:49:24;;;;;;;3.97;1.80;;;;;;;21.71;50.82;100514.25;5109232;28;20027;-64
2021/08/25 06:51:49;;;;;;;4.30;2.15;;;;;;;21.72;49.72;100507.72;5109263;28;20029;-64
2021/08/25 06:54:15;;;;;;;3.35;1.98;;;;;;;21.79;48.79;100517.69;5109298;28;20041;-64
2021/08/25 06:56:42;;;;;;;4.35;2.00;;;;;;;21.87;49.46;100522.97;5109149;28;20071;-64
2021/08/25 06:59:07;;;;;;;2.60;1.90;;;;;;;21.97;49.56;100522.59;5109291;28;20463;-64
2021/08/25 07:01:32;;;;;;;6.55;2.13;;;;;;;22.02;49.00;100518.19;5109562;28;20012;-64
2021/08/25 07:03:58;;;;;;;3.88;2.00;;;;;;;22.09;48.02;100527.25;5108743;28;20042;-64
2021/08/25 07:06:23;;;;;;;4.95;2.10;;;;;;;22.14;47.93;100530.25;5109186;28;20035;-64
2021/08/25 07:08:49;;;;;;;6.97;2.42;;;;;;;22.17;47.72;100526.25;5108971;28;20019;-64
2021/08/25 07:11:14;;;;;;;6.45;2.13;;;;;;;22.20;47.82;100531.31;5108815;28;20032;-64
2021/08/25 07:13:40;;;;;;;3.65;2.15;;;;;;;22.21;47.37;100524.78;5108912;28;20028;-64
2021/08/25 07:16:07;;;;;;;3.88;2.15;;;;;;;22.21;47.56;100527.53;5108767;28;20076;-64
2021/08/25 07:18:33;;;;;;;5.97;2.60;;;;;;;22.15;47.21;100522.88;5109242;28;20031;-63
2021/08/25 07:20:59;;;;;;;6.38;2.38;;;;;;;22.19;46.88;100521.44;5108731;28;20114;-64
2021/08/25 07:23:24;;;;;;;4.43;2.35;;;;;;;22.17;47.52;100518.91;5108737;28;20118;-64
2021/08/25 07:25:50;;;;;;;4.93;1.92;;;;;;;22.19;47.49;100515.97;5108401;28;20035;-64
2021/08/25 07:28:15;;;;;;;3.65;2.03;;;;;;;22.18;47.89;100526.03;5108794;28;20421;-64
2021/08/25 07:30:41;;;;;;;2.25;1.88;;;;;;;22.17;48.18;100528.97;5108538;28;20031;-64
2021/08/25 07:33:12;;;;;;;6.03;2.40;;;;;;;22.18;47.84;100525.19;5108595;28;20043;-65
2021/08/25 07:35:38;;;;;;;3.13;2.55;;;;;;;22.17;48.35;100518.91;5108703;28;20402;-64
2021/08/25 07:38:03;;;;;;;4.78;2.60;;;;;;;22.24;47.96;100521.66;5108787;28;20448;-63
2021/08/25 07:40:29;;;;;;;3.67;2.35;;;;;;;22.29;48.07;100525.44;5108378;28;20028;-63
2021/08/25 07:42:54;;;;;;;3.13;2.17;;;;;;;22.30;47.66;100531.75;5108431;28;20106;-64
2021/08/25 07:45:19;;;;;;;3.08;2.08;;;;;;;22.27;47.85;100526.72;5108313;28;20486;-63
2021/08/25 07:47:46;;;;;;;4.47;2.22;;;;;;;22.28;47.61;100526.50;5108303;28;20027;-64
2021/08/25 07:50:12;;;;;;;4.68;2.25;;;;;;;22.33;47.11;100531.34;5107774;28;20368;-64
2021/08/25 07:52:37;;;;;;;6.03;2.95;;;;;;;22.41;47.34;100530.34;5108162;28;20076;-65
2021/08/25 07:55:03;;;;;;;9.60;3.05;;;;;;;22.47;46.76;100527.59;5108600;28;20032;-64
2021/08/25 07:57:28;;;;;;;9.20;2.85;;;;;;;22.48;46.82;100523.84;5090179;28;20020;-64
2021/08/25 07:59:54;;;;;;;4.18;2.20;;;;;;;22.58;47.36;100531.66;5108276;28;20023;-64
2021/08/25 08:02:20;;;;;;;3.97;2.13;;;;;;;22.63;47.25;100527.25;5108314;28;20023;-64
2021/08/25 08:04:46;;;;;;;4.25;2.17;;;;;;;22.77;46.92;100537.19;5108043;28;20027;-64
2021/08/25 08:07:11;;;;;;;3.47;2.05;;;;;;;22.84;46.46;100534.44;5108408;28;20464;-64
2021/08/25 08:09:37;;;;;;;3.10;1.98;;;;;;;22.91;46.79;100532.56;5108743;28;20493;-64
2021/08/25 08:12:02;;;;;;;4.38;2.33;;;;;;;22.99;46.92;100530.47;5108550;28;20019;-65
2021/08/25 08:14:28;;;;;;;4.53;1.95;;;;;;;23.11;46.71;100528.78;5108259;28;20031;-64
2021/08/25 08:16:56;;;;;;;5.03;2.17;;;;;;;23.14;46.34;100525.63;5108004;28;20036;-63
2021/08/25 08:19:33;;;;;;;4.72;2.25;;;;;;;23.22;45.81;100519.97;5108398;28;20035;-64
2021/08/25 08:22:00;;;;;;;2.78;2.08;;;;;;;23.32;45.69;100525.03;5107742;28;20023;-64
2021/08/25 08:24:26;;;;;;;4.32;2.03;;;;;;;23.32;45.29;100514.09;5108284;28;20347;-64
2021/08/25 08:26:52;;;;;;;3.15;2.05;;;;;;;23.49;45.46;100523.53;5107957;28;20035;-63
2021/08/25 08:29:18;;;;;;;4.60;2.42;;;;;;;23.66;44.38;100525.59;5108528;28;20032;-63
2021/08/25 08:31:43;;;;;;;4.97;2.15;;;;;;;23.68;44.44;100514.44;5107829;28;20027;-63
2021/08/25 08:34:08;;;;;;;5.55;2.47;;;;;;;23.74;43.73;100508.97;5108347;28;20050;-64
2021/08/25 08:36:34;;;;;;;4.75;2.50;;;;;;;23.82;43.06;100524.28;5108147;28;20028;-64
2021/08/25 08:39:00;;;;;;;5.00;2.40;;;;;;;23.90;42.62;100521.34;5107766;28;20081;-64
2021/08/25 08:41:25;;;;;;;5.22;2.40;;;;;;;23.86;42.42;100509.13;5108150;28;20023;-64
2021/08/25 08:43:52;;;;;;;3.92;2.60;;;;;;;23.82;41.92;100516.06;5107690;28;20440;-64
2021/08/25 08:46:22;;;;;;;7.63;2.22;;;;;;;23.76;42.17;100509.56;5089507;28;20047;-64
2021/08/25 08:48:49;;;;;;;2.97;1.98;;;;;;;23.80;42.18;100510.81;5107808;28;20031;-64
2021/08/25 08:51:24;;;;;;;3.63;2.33;;;;;;;23.84;42.28;100519.47;5107749;28;20468;-64
2021/08/25 08:53:52;;;;;;;7.10;3.10;;;;;;;23.91;41.76;100515.66;5107733;28;20023;-65
2021/08/25 08:56:18;;;;;;;8.13;2.50;;;;;;;23.97;41.90;100509.34;5108088;28;20417;-64
2021/08/25 08:58:44;;;;;;;4.43;2.28;;;;;;;24.02;41.87;100506.78;5107746;28;20032;-64
2021/08/25 09:01:10;;;;;;;3.55;2.40;;;;;;;24.05;41.20;100505.47;5110369;28;20114;-64
2021/08/25 09:03:38;;;;;;;5.45;2.20;;;;;;;24.08;41.32;100511.38;5111779;28;20115;-64
2021/08/25 09:06:05;;;;;;;3.25;2.08;;;;;;;24.07;41.45;100501.50;5112228;28;20019;-64
2021/08/25 09:08:33;;;;;;;3.33;2.17;;;;;;;24.14;41.46;100510.53;5111579;28;20069;-65
2021/08/25 09:11:10;;;;;;;3.72;2.55;;;;;;;24.24;40.90;100501.81;5111183;28;20303;-64
2021/08/25 09:13:49;;;;;;;4.65;2.40;;;;;;;24.16;41.60;100510.31;5111731;28;20027;-64
2021/08/25 09:16:27;;;;;;;4.18;2.40;;;;;;;24.15;41.60;100498.50;5111078;28;20031;-64
2021/08/25 09:19:06;;;;;;;7.70;2.45;;;;;;;24.16;41.34;100505.69;5111072;28;20498;-64
2021/08/25 09:21:53;;;;;;;4.43;2.20;;;;;;;24.19;42.31;100499.72;5111228;28;20027;-64
2021/08/25 09:24:22;;;;;;;3.83;2.00;;;;;;;24.13;41.99;100488.81;5110689;28;20402;-64
2021/08/25 09:27:08;;;;;;;3.95;2.50;;;;;;;24.22;41.83;100501.22;5110777;28;20031;-64
2021/08/25 09:29:35;;;;;;;4.32;2.33;;;;;;;24.23;41.06;100494.66;5111131;28;20020;-64
2021/08/25 09:32:00;;;;;;;3.17;2.20;;;;;;;24.25;40.45;100492.56;5110948;28;20039;-63
2021/08/25 09:34:31;;;;;;;4.68;2.75;;;;;;;24.27;40.59;100487.69;5110881;28;20046;-64
2021/08/25 09:37:08;;;;;;;4.97;2.20;;;;;;;24.25;40.91;100487.91;5110576;28;20031;-63
2021/08/25 09:39:35;;;;;;;6.65;2.20;;;;;;;24.29;41.10;100491.06;5111201;28;20028;-63
2021/08/25 09:42:04;;;;;;;6.35;2.72;;;;;;;24.26;41.17;100480.53;5110688;28;20076;-63
2021/08/25 09:44:29;;;;;;;4.35;2.10;;;;;;;24.29;41.73;100486.41;5092674;28;20557;-64
2021/08/25 09:46:55;;;;;;;16.02;9.10;;;;;;;24.32;41.71;100482.38;5110334;28;20051;-63
2021/08/25 09:49:20;;;;;;;7.60;5.00;;;;;;;24.40;41.46;100482.97;5110546;28;20118;-63
2021/08/25 09:51:46;;;;;;;5.15;2.83;;;;;;;24.45;40.88;100474.09;5091959;28;20032;-64
2021/08/25 09:54:16;;;;;;;3.67;2.53;;;;;;;24.53;40.88;100475.72;5110624;28;20063;-64
2021/08/25 09:56:43;;;;;;;4.88;2.75;;;;;;;24.58;40.95;100481.38;5110287;28;20070;-63
2021/08/25 09:59:13;;;;;;;5.70;2.33;;;;;;;24.60;40.43;100471.03;5110819;28;20433;-63
2021/08/25 10:01:40;;;;;;;5.13;2.30;;;;;;;24.66;40.12;100461.97;5111079;28;20042;-64
2021/08/25 10:04:11;;;;;;;5.25;2.15;;;;;;;24.63;40.61;100460.44;5110550;28;20031;-64
2021/08/25 10:06:38;;;;;;;2.65;2.25;;;;;;;24.60;40.75;100466.38;5092264;28;20035;-64
2021/08/25 10:09:06;;;;;;;6.82;2.42;;;;;;;24.53;40.29;100462.00;5110049;28;20027;-64
2021/08/25 10:11:33;;;;;;;2.95;2.17;;;;;;;24.48;40.32;100458.00;5109649;28;20517;-63
2021/08/25 10:14:05;;;;;;;5.57;2.30;;;;;;;24.53;40.51;100465.59;5109939;28;20023;-64
2021/08/25 10:16:43;;;;;;;3.70;2.30;;;;;;;24.54;40.45;100449.97;5110049;28;20023;-64
2021/08/25 10:19:24;;;;;;;4.80;2.35;;;;;;;24.52;40.41;100460.31;5110228;28;20103;-64
2021/08/25 10:21:51;;;;;;;6.68;2.05;;;;;;;24.47;40.69;100444.50;5109825;28;20130;-64
2021/08/25 10:24:16;;;;;;;3.92;2.08;;;;;;;24.44;41.35;100448.56;5110074;28;20020;-64
2021/08/25 10:27:06;;;;;;;5.15;1.95;;;;;;;24.50;40.59;100446.81;5109798;28;20080;-64
2021/08/25 10:29:32;;;;;;;4.63;2.00;;;;;;;24.53;40.54;100442.81;5091697;28;20039;-64
2021/08/25 10:32:03;;;;;;;2.80;2.00;;;;;;;24.57;40.11;100438.56;5109679;28;20024;-64
2021/08/25 10:34:31;;;;;;;3.95;2.20;;;;;;;24.58;40.38;100445.72;5091438;28;20122;-64
2021/08/25 10:37:26;;;;;;;3.50;2.20;;;;;;;24.59;40.63;100430.94;5109643;28;20062;-64
2021/08/25 10:40:00;;;;;;;4.57;2.22;;;;;;;24.58;40.81;100429.25;5089777;28;20044;-64
2021/08/25 10:42:48;;;;;;;4.47;2.22;;;;;;;24.59;40.40;100429.03;5109651;28;20030;-63
2021/08/25 10:45:15;;;;;;;4.55;2.20;;;;;;;24.60;40.62;100416.19;5109297;28;20035;-64
2021/08/25 10:48:02;;;;;;;4.20;2.50;;;;;;;24.59;40.60;100417.22;5109621;28;20563;-64
2021/08/25 10:50:52;;;;;;;4.25;2.53;;;;;;;24.63;41.19;100413.00;5107757;28;20035;-64
2021/08/25 10:53:29;;;;;;;5.25;2.70;;;;;;;24.68;40.11;100402.19;5109583;28;20034;-64
2021/08/25 10:56:15;;;;;;;3.17;1.90;;;;;;;24.67;40.58;100395.91;5091083;28;20034;-65
2021/08/25 10:58:51;;;;;;;2.25;1.88;;;;;;;24.69;41.01;100395.66;5109511;28;20031;-64
2021/08/25 11:01:30;;;;;;;2.75;2.13;;;;;;;24.70;40.81;100394.59;5091344;28;20454;-64
2021/08/25 11:04:02;;;;;;;3.15;2.17;;;;;;;24.61;40.63;100368.47;5109024;28;20031;-64
2021/08/25 11:06:39;;;;;;;2.72;2.10;;;;;;;24.72;40.84;100386.97;5109487;28;20077;-64
2021/08/25 11:09:20;;;;;;;5.38;1.95;;;;;;;24.77;41.10;100376.16;5109348;28;20031;-65
2021/08/25 11:11:46;;;;;;;4.22;1.92;;;;;;;24.74;41.32;100379.34;5109125;28;20024;-65
2021/08/25 11:14:24;;;;;;;4.07;2.45;;;;;;;24.71;41.37;100366.94;5109751;28;20431;-64
2021/08/25 11:16:51;;;;;;;3.28;2.22;;;;;;;24.71;41.53;100380.66;5109116;28;20024;-64
2021/08/25 11:19:24;;;;;;;3.40;2.03;;;;;;;24.71;41.01;100382.56;5109201;28;20031;-64
2021/08/25 11:21:51;;;;;;;3.05;2.20;;;;;;;24.67;41.19;100378.59;5109095;28;20022;-64
2021/08/25 11:24:16;;;;;;;4.97;1.90;;;;;;;24.61;41.49;100357.50;5108499;28;20383;-64